sensor_id;sensor_type;location;lat;lon;timestamp;P1;durP1;ratioP1;P2;durP2;ratioP2
56073;SDS011;41950;55.840;37.442;2022-08-30T00:00:52;10.70;;;6.60;;
56073;SDS011;41950;55.840;37.442;2022-08-30T00:03:35;9.70;;;6.90;;
56073;SDS011;41950;55.840;37.442;2022-08-30T00:06:05;13.57;;;7.28;;
56073;SDS011;41950;55.840;37.442;2022-08-30T00:08:33;12.90;;;7.25;;
56073;SDS011;41950;55.840;37.442;2022-08-30T00:11:00;15.40;;;6.93;;
56073;SDS011;41950;55.840;37.442;2022-08-30T00:13:29;12.13;;;7.35;;
56073;SDS011;41950;55.840;37.442;2022-08-30T00:15:55;12.88;;;7.05;;
56073;SDS011;41950;55.840;37.442;2022-08-30T00:18:21;12.02;;;7.78;;
56073;SDS011;41950;55.840;37.442;2022-08-30T00:20:47;11.43;;;6.97;;
56073;SDS011;41950;55.840;37.442;2022-08-30T00:23:14;13.45;;;7.05;;
56073;SDS011;41950;55.840;37.442;2022-08-30T00:25:41;11.13;;;8.02;;
56073;SDS011;41950;55.840;37.442;2022-08-30T00:28:08;14.38;;;8.15;;
56073;SDS011;41950;55.840;37.442;2022-08-30T00:30:36;11.85;;;7.32;;
56073;SDS011;41950;55.840;37.442;2022-08-30T00:33:02;13.02;;;8.48;;
56073;SDS011;41950;55.840;37.442;2022-08-30T00:35:28;14.60;;;7.93;;
56073;SDS011;41950;55.840;37.442;2022-08-30T00:37:54;13.68;;;8.10;;
56073;SDS011;41950;55.840;37.442;2022-08-30T00:40:20;12.35;;;7.32;;
56073;SDS011;41950;55.840;37.442;2022-08-30T00:42:46;11.63;;;7.00;;
56073;SDS011;41950;55.840;37.442;2022-08-30T00:45:17;12.73;;;7.60;;
56073;SDS011;41950;55.840;37.442;2022-08-30T00:47:49;14.52;;;7.95;;
56073;SDS011;41950;55.840;37.442;2022-08-30T00:50:15;10.50;;;7.32;;
56073;SDS011;41950;55.840;37.442;2022-08-30T00:52:45;12.38;;;7.88;;
56073;SDS011;41950;55.840;37.442;2022-08-30T00:55:15;15.50;;;8.38;;
56073;SDS011;41950;55.840;37.442;2022-08-30T00:57:42;11.30;;;7.57;;
56073;SDS011;41950;55.840;37.442;2022-08-30T01:00:11;12.40;;;8.07;;
56073;SDS011;41950;55.840;37.442;2022-08-30T01:02:38;12.95;;;7.47;;
56073;SDS011;41950;55.840;37.442;2022-08-30T01:05:04;12.05;;;7.38;;
56073;SDS011;41950;55.840;37.442;2022-08-30T01:07:35;13.20;;;7.60;;
56073;SDS011;41950;55.840;37.442;2022-08-30T01:10:02;12.13;;;7.97;;
56073;SDS011;41950;55.840;37.442;2022-08-30T01:12:29;12.90;;;7.60;;
56073;SDS011;41950;55.840;37.442;2022-08-30T01:14:56;10.55;;;7.70;;
56073;SDS011;41950;55.840;37.442;2022-08-30T01:17:22;12.80;;;8.13;;
56073;SDS011;41950;55.840;37.442;2022-08-30T01:20:00;10.48;;;7.88;;
56073;SDS011;41950;55.840;37.442;2022-08-30T01:25:15;17.70;;;8.10;;
56073;SDS011;41950;55.840;37.442;2022-08-30T01:27:55;11.00;;;8.20;;
56073;SDS011;41950;55.840;37.442;2022-08-30T01:30:28;14.25;;;7.90;;
56073;SDS011;41950;55.840;37.442;2022-08-30T01:32:58;13.05;;;7.63;;
56073;SDS011;41950;55.840;37.442;2022-08-30T01:35:26;14.13;;;7.85;;
56073;SDS011;41950;55.840;37.442;2022-08-30T01:37:52;12.13;;;7.60;;
56073;SDS011;41950;55.840;37.442;2022-08-30T01:40:19;13.13;;;8.30;;
56073;SDS011;41950;55.840;37.442;2022-08-30T01:42:46;13.07;;;8.13;;
56073;SDS011;41950;55.840;37.442;2022-08-30T01:45:13;10.40;;;7.43;;
56073;SDS011;41950;55.840;37.442;2022-08-30T01:47:39;10.65;;;7.53;;
56073;SDS011;41950;55.840;37.442;2022-08-30T01:50:05;11.77;;;7.50;;
56073;SDS011;41950;55.840;37.442;2022-08-30T01:52:32;12.57;;;7.43;;
56073;SDS011;41950;55.840;37.442;2022-08-30T01:54:59;12.63;;;7.85;;
56073;SDS011;41950;55.840;37.442;2022-08-30T01:57:24;11.32;;;7.72;;
56073;SDS011;41950;55.840;37.442;2022-08-30T01:59:51;10.88;;;7.85;;
56073;SDS011;41950;55.840;37.442;2022-08-30T02:02:17;12.68;;;8.60;;
56073;SDS011;41950;55.840;37.442;2022-08-30T02:04:47;14.45;;;7.63;;
56073;SDS011;41950;55.840;37.442;2022-08-30T02:07:13;11.70;;;8.50;;
56073;SDS011;41950;55.840;37.442;2022-08-30T02:09:39;13.32;;;6.88;;
56073;SDS011;41950;55.840;37.442;2022-08-30T02:12:05;10.38;;;7.43;;
56073;SDS011;41950;55.840;37.442;2022-08-30T02:14:33;12.35;;;8.10;;
56073;SDS011;41950;55.840;37.442;2022-08-30T02:16:59;13.30;;;7.53;;
56073;SDS011;41950;55.840;37.442;2022-08-30T02:19:27;14.38;;;7.88;;
56073;SDS011;41950;55.840;37.442;2022-08-30T02:21:53;13.40;;;8.13;;
56073;SDS011;41950;55.840;37.442;2022-08-30T02:24:19;14.38;;;8.40;;
56073;SDS011;41950;55.840;37.442;2022-08-30T02:26:44;12.77;;;8.73;;
56073;SDS011;41950;55.840;37.442;2022-08-30T02:29:10;17.30;;;9.50;;
56073;SDS011;41950;55.840;37.442;2022-08-30T02:31:37;13.10;;;8.60;;
56073;SDS011;41950;55.840;37.442;2022-08-30T02:34:02;15.07;;;8.98;;
56073;SDS011;41950;55.840;37.442;2022-08-30T02:36:28;12.73;;;8.05;;
56073;SDS011;41950;55.840;37.442;2022-08-30T02:38:54;12.98;;;8.05;;
56073;SDS011;41950;55.840;37.442;2022-08-30T02:41:20;13.10;;;8.35;;
56073;SDS011;41950;55.840;37.442;2022-08-30T02:43:48;11.30;;;7.47;;
56073;SDS011;41950;55.840;37.442;2022-08-30T02:46:15;12.18;;;7.40;;
56073;SDS011;41950;55.840;37.442;2022-08-30T02:48:42;12.57;;;7.85;;
56073;SDS011;41950;55.840;37.442;2022-08-30T02:51:08;14.32;;;8.75;;
56073;SDS011;41950;55.840;37.442;2022-08-30T02:53:36;11.85;;;8.25;;
56073;SDS011;41950;55.840;37.442;2022-08-30T02:56:02;12.00;;;7.68;;
56073;SDS011;41950;55.840;37.442;2022-08-30T02:58:28;10.25;;;7.43;;
56073;SDS011;41950;55.840;37.442;2022-08-30T03:00:54;13.95;;;8.10;;
56073;SDS011;41950;55.840;37.442;2022-08-30T03:03:19;13.10;;;8.25;;
56073;SDS011;41950;55.840;37.442;2022-08-30T03:05:45;15.18;;;8.80;;
56073;SDS011;41950;55.840;37.442;2022-08-30T03:08:11;12.30;;;8.95;;
56073;SDS011;41950;55.840;37.442;2022-08-30T03:10:37;14.20;;;9.15;;
56073;SDS011;41950;55.840;37.442;2022-08-30T03:13:03;16.58;;;9.15;;
56073;SDS011;41950;55.840;37.442;2022-08-30T03:15:32;13.57;;;8.65;;
56073;SDS011;41950;55.840;37.442;2022-08-30T03:17:59;12.95;;;8.95;;
56073;SDS011;41950;55.840;37.442;2022-08-30T03:20:25;12.45;;;8.52;;
56073;SDS011;41950;55.840;37.442;2022-08-30T03:22:51;11.43;;;8.43;;
56073;SDS011;41950;55.840;37.442;2022-08-30T03:25:17;15.23;;;9.07;;
56073;SDS011;41950;55.840;37.442;2022-08-30T03:27:44;14.00;;;8.70;;
56073;SDS011;41950;55.840;37.442;2022-08-30T03:30:11;12.93;;;8.35;;
56073;SDS011;41950;55.840;37.442;2022-08-30T03:32:37;12.15;;;8.35;;
56073;SDS011;41950;55.840;37.442;2022-08-30T03:35:04;12.00;;;8.98;;
56073;SDS011;41950;55.840;37.442;2022-08-30T03:37:31;12.73;;;8.82;;
56073;SDS011;41950;55.840;37.442;2022-08-30T03:39:57;14.63;;;8.80;;
56073;SDS011;41950;55.840;37.442;2022-08-30T03:42:22;14.07;;;8.40;;
56073;SDS011;41950;55.840;37.442;2022-08-30T03:44:48;14.25;;;9.07;;
56073;SDS011;41950;55.840;37.442;2022-08-30T03:47:14;13.35;;;8.65;;
56073;SDS011;41950;55.840;37.442;2022-08-30T03:49:39;12.65;;;8.73;;
56073;SDS011;41950;55.840;37.442;2022-08-30T03:52:05;12.23;;;9.43;;
56073;SDS011;41950;55.840;37.442;2022-08-30T03:54:31;15.68;;;9.48;;
56073;SDS011;41950;55.840;37.442;2022-08-30T03:56:56;14.55;;;9.00;;
56073;SDS011;41950;55.840;37.442;2022-08-30T03:59:22;13.38;;;8.70;;
56073;SDS011;41950;55.840;37.442;2022-08-30T04:01:48;15.38;;;9.35;;
56073;SDS011;41950;55.840;37.442;2022-08-30T04:04:14;14.77;;;9.48;;
56073;SDS011;41950;55.840;37.442;2022-08-30T04:06:39;12.43;;;9.23;;
56073;SDS011;41950;55.840;37.442;2022-08-30T04:09:05;13.68;;;9.55;;
56073;SDS011;41950;55.840;37.442;2022-08-30T04:11:32;13.98;;;10.32;;
56073;SDS011;41950;55.840;37.442;2022-08-30T04:13:57;13.85;;;9.73;;
56073;SDS011;41950;55.840;37.442;2022-08-30T04:16:23;13.07;;;9.35;;
56073;SDS011;41950;55.840;37.442;2022-08-30T04:18:50;14.85;;;10.05;;
56073;SDS011;41950;55.840;37.442;2022-08-30T04:21:16;11.63;;;9.80;;
56073;SDS011;41950;55.840;37.442;2022-08-30T04:23:43;13.90;;;10.75;;
56073;SDS011;41950;55.840;37.442;2022-08-30T04:26:09;13.50;;;10.15;;
56073;SDS011;41950;55.840;37.442;2022-08-30T04:28:35;12.43;;;9.90;;
56073;SDS011;41950;55.840;37.442;2022-08-30T04:31:11;13.82;;;10.32;;
56073;SDS011;41950;55.840;37.442;2022-08-30T04:33:40;13.50;;;10.38;;
56073;SDS011;41950;55.840;37.442;2022-08-30T04:36:06;13.77;;;9.55;;
56073;SDS011;41950;55.840;37.442;2022-08-30T04:38:34;12.25;;;10.07;;
56073;SDS011;41950;55.840;37.442;2022-08-30T04:41:00;14.63;;;11.15;;
56073;SDS011;41950;55.840;37.442;2022-08-30T04:43:27;15.75;;;10.75;;
56073;SDS011;41950;55.840;37.442;2022-08-30T04:45:53;13.43;;;10.18;;
56073;SDS011;41950;55.840;37.442;2022-08-30T04:48:20;14.77;;;9.85;;
56073;SDS011;41950;55.840;37.442;2022-08-30T04:50:46;15.40;;;11.13;;
56073;SDS011;41950;55.840;37.442;2022-08-30T04:53:13;12.07;;;10.00;;
56073;SDS011;41950;55.840;37.442;2022-08-30T04:55:39;14.65;;;10.82;;
56073;SDS011;41950;55.840;37.442;2022-08-30T04:58:07;15.50;;;11.70;;
56073;SDS011;41950;55.840;37.442;2022-08-30T05:00:32;13.60;;;10.90;;
56073;SDS011;41950;55.840;37.442;2022-08-30T05:02:59;15.07;;;11.95;;
56073;SDS011;41950;55.840;37.442;2022-08-30T05:05:24;14.55;;;11.48;;
56073;SDS011;41950;55.840;37.442;2022-08-30T05:08:06;14.38;;;11.00;;
56073;SDS011;41950;55.840;37.442;2022-08-30T05:10:40;14.20;;;11.55;;
56073;SDS011;41950;55.840;37.442;2022-08-30T05:15:34;14.70;;;11.52;;
56073;SDS011;41950;55.840;37.442;2022-08-30T05:18:02;15.02;;;12.50;;
56073;SDS011;41950;55.840;37.442;2022-08-30T05:20:28;14.77;;;11.68;;
56073;SDS011;41950;55.840;37.442;2022-08-30T05:22:54;13.60;;;11.82;;
56073;SDS011;41950;55.840;37.442;2022-08-30T05:25:23;14.73;;;11.98;;
56073;SDS011;41950;55.840;37.442;2022-08-30T05:30:17;15.15;;;12.50;;
56073;SDS011;41950;55.840;37.442;2022-08-30T05:32:43;16.30;;;11.82;;
56073;SDS011;41950;55.840;37.442;2022-08-30T05:35:10;14.45;;;12.45;;
56073;SDS011;41950;55.840;37.442;2022-08-30T05:37:37;13.45;;;11.98;;
56073;SDS011;41950;55.840;37.442;2022-08-30T05:40:04;15.48;;;12.43;;
56073;SDS011;41950;55.840;37.442;2022-08-30T05:42:31;14.57;;;12.00;;
56073;SDS011;41950;55.840;37.442;2022-08-30T05:44:57;14.40;;;11.77;;
56073;SDS011;41950;55.840;37.442;2022-08-30T05:47:22;15.05;;;12.48;;
56073;SDS011;41950;55.840;37.442;2022-08-30T05:49:48;15.93;;;13.20;;
56073;SDS011;41950;55.840;37.442;2022-08-30T05:52:14;14.35;;;12.52;;
56073;SDS011;41950;55.840;37.442;2022-08-30T05:54:42;15.00;;;12.52;;
56073;SDS011;41950;55.840;37.442;2022-08-30T05:57:09;14.98;;;13.45;;
56073;SDS011;41950;55.840;37.442;2022-08-30T05:59:35;17.27;;;13.88;;
56073;SDS011;41950;55.840;37.442;2022-08-30T06:02:01;16.58;;;13.13;;
56073;SDS011;41950;55.840;37.442;2022-08-30T06:04:27;16.85;;;12.68;;
56073;SDS011;41950;55.840;37.442;2022-08-30T06:06:53;16.02;;;12.85;;
56073;SDS011;41950;55.840;37.442;2022-08-30T06:09:18;16.63;;;12.52;;
56073;SDS011;41950;55.840;37.442;2022-08-30T06:11:44;16.05;;;13.90;;
56073;SDS011;41950;55.840;37.442;2022-08-30T06:14:11;17.83;;;13.85;;
56073;SDS011;41950;55.840;37.442;2022-08-30T06:16:38;16.88;;;12.93;;
56073;SDS011;41950;55.840;37.442;2022-08-30T06:19:05;17.60;;;13.15;;
56073;SDS011;41950;55.840;37.442;2022-08-30T06:21:33;17.63;;;14.30;;
56073;SDS011;41950;55.840;37.442;2022-08-30T06:24:01;14.38;;;12.88;;
56073;SDS011;41950;55.840;37.442;2022-08-30T06:26:29;16.52;;;13.35;;
56073;SDS011;41950;55.840;37.442;2022-08-30T06:28:55;16.40;;;13.90;;
56073;SDS011;41950;55.840;37.442;2022-08-30T06:31:22;17.98;;;14.20;;
56073;SDS011;41950;55.840;37.442;2022-08-30T06:33:50;16.98;;;13.52;;
56073;SDS011;41950;55.840;37.442;2022-08-30T06:36:19;15.30;;;12.70;;
56073;SDS011;41950;55.840;37.442;2022-08-30T06:38:48;16.05;;;13.05;;
56073;SDS011;41950;55.840;37.442;2022-08-30T06:41:16;14.55;;;12.13;;
56073;SDS011;41950;55.840;37.442;2022-08-30T06:43:45;20.90;;;13.32;;
56073;SDS011;41950;55.840;37.442;2022-08-30T06:46:12;23.30;;;13.57;;
56073;SDS011;41950;55.840;37.442;2022-08-30T06:48:40;14.55;;;12.90;;
56073;SDS011;41950;55.840;37.442;2022-08-30T06:51:06;15.27;;;13.55;;
56073;SDS011;41950;55.840;37.442;2022-08-30T06:53:32;42.03;;;15.50;;
56073;SDS011;41950;55.840;37.442;2022-08-30T06:56:00;32.25;;;13.82;;
56073;SDS011;41950;55.840;37.442;2022-08-30T06:58:29;19.27;;;12.50;;
56073;SDS011;41950;55.840;37.442;2022-08-30T07:00:56;15.63;;;11.98;;
56073;SDS011;41950;55.840;37.442;2022-08-30T07:03:21;17.17;;;12.07;;
56073;SDS011;41950;55.840;37.442;2022-08-30T07:05:48;15.07;;;12.23;;
56073;SDS011;41950;55.840;37.442;2022-08-30T07:08:14;14.18;;;11.85;;
56073;SDS011;41950;55.840;37.442;2022-08-30T07:10:42;13.68;;;11.63;;
56073;SDS011;41950;55.840;37.442;2022-08-30T07:13:09;22.08;;;13.07;;
56073;SDS011;41950;55.840;37.442;2022-08-30T07:15:34;17.17;;;12.25;;
56073;SDS011;41950;55.840;37.442;2022-08-30T07:18:00;33.88;;;12.20;;
56073;SDS011;41950;55.840;37.442;2022-08-30T07:20:45;14.65;;;11.70;;
56073;SDS011;41950;55.840;37.442;2022-08-30T07:23:11;16.38;;;11.68;;
56073;SDS011;41950;55.840;37.442;2022-08-30T07:25:37;17.63;;;12.45;;
56073;SDS011;41950;55.840;37.442;2022-08-30T07:28:04;15.88;;;12.05;;
56073;SDS011;41950;55.840;37.442;2022-08-30T07:30:30;14.02;;;11.50;;
56073;SDS011;41950;55.840;37.442;2022-08-30T07:32:58;16.27;;;12.32;;
56073;SDS011;41950;55.840;37.442;2022-08-30T07:35:24;17.20;;;11.88;;
56073;SDS011;41950;55.840;37.442;2022-08-30T07:37:50;12.70;;;10.95;;
56073;SDS011;41950;55.840;37.442;2022-08-30T07:40:16;13.77;;;12.13;;
56073;SDS011;41950;55.840;37.442;2022-08-30T07:42:42;14.07;;;12.57;;
56073;SDS011;41950;55.840;37.442;2022-08-30T07:45:09;15.10;;;12.13;;
56073;SDS011;41950;55.840;37.442;2022-08-30T07:47:35;13.38;;;11.48;;
56073;SDS011;41950;55.840;37.442;2022-08-30T07:50:01;13.95;;;11.65;;
56073;SDS011;41950;55.840;37.442;2022-08-30T07:52:30;14.77;;;12.32;;
56073;SDS011;41950;55.840;37.442;2022-08-30T07:54:56;14.60;;;12.25;;
56073;SDS011;41950;55.840;37.442;2022-08-30T07:57:23;13.50;;;12.15;;
56073;SDS011;41950;55.840;37.442;2022-08-30T07:59:49;14.60;;;12.40;;
56073;SDS011;41950;55.840;37.442;2022-08-30T08:02:15;19.63;;;13.30;;
56073;SDS011;41950;55.840;37.442;2022-08-30T08:04:41;16.13;;;12.02;;
56073;SDS011;41950;55.840;37.442;2022-08-30T08:07:08;15.90;;;11.88;;
56073;SDS011;41950;55.840;37.442;2022-08-30T08:09:35;13.05;;;11.75;;
56073;SDS011;41950;55.840;37.442;2022-08-30T08:12:05;13.57;;;11.32;;
56073;SDS011;41950;55.840;37.442;2022-08-30T08:14:32;13.82;;;11.57;;
56073;SDS011;41950;55.840;37.442;2022-08-30T08:17:01;14.35;;;12.23;;
56073;SDS011;41950;55.840;37.442;2022-08-30T08:19:50;14.52;;;12.00;;
56073;SDS011;41950;55.840;37.442;2022-08-30T08:22:16;13.38;;;11.98;;
56073;SDS011;41950;55.840;37.442;2022-08-30T08:24:51;13.25;;;11.68;;
56073;SDS011;41950;55.840;37.442;2022-08-30T08:27:19;15.38;;;11.77;;
56073;SDS011;41950;55.840;37.442;2022-08-30T08:29:45;26.00;;;12.10;;
56073;SDS011;41950;55.840;37.442;2022-08-30T08:32:11;32.88;;;14.45;;
56073;SDS011;41950;55.840;37.442;2022-08-30T08:34:36;15.07;;;11.65;;
56073;SDS011;41950;55.840;37.442;2022-08-30T08:37:02;14.73;;;11.77;;
56073;SDS011;41950;55.840;37.442;2022-08-30T08:39:28;15.02;;;11.45;;
56073;SDS011;41950;55.840;37.442;2022-08-30T08:50:21;13.18;;;10.93;;
56073;SDS011;41950;55.840;37.442;2022-08-30T08:55:31;14.82;;;12.50;;
56073;SDS011;41950;55.840;37.442;2022-08-30T08:57:57;13.60;;;11.13;;
56073;SDS011;41950;55.840;37.442;2022-08-30T09:00:23;14.00;;;12.18;;
56073;SDS011;41950;55.840;37.442;2022-08-30T09:02:55;12.48;;;10.43;;
56073;SDS011;41950;55.840;37.442;2022-08-30T09:05:24;14.38;;;11.10;;
56073;SDS011;41950;55.840;37.442;2022-08-30T09:07:54;14.02;;;10.73;;
56073;SDS011;41950;55.840;37.442;2022-08-30T09:10:24;13.50;;;11.10;;
56073;SDS011;41950;55.840;37.442;2022-08-30T09:12:51;13.32;;;10.98;;
56073;SDS011;41950;55.840;37.442;2022-08-30T09:15:23;12.05;;;10.80;;
56073;SDS011;41950;55.840;37.442;2022-08-30T09:18:01;12.52;;;10.48;;
56073;SDS011;41950;55.840;37.442;2022-08-30T09:23:21;15.05;;;10.68;;
56073;SDS011;41950;55.840;37.442;2022-08-30T09:25:56;12.00;;;10.30;;
56073;SDS011;41950;55.840;37.442;2022-08-30T09:28:29;12.23;;;10.40;;
56073;SDS011;41950;55.840;37.442;2022-08-30T09:31:18;11.25;;;9.85;;
56073;SDS011;41950;55.840;37.442;2022-08-30T09:34:03;10.30;;;9.25;;
56073;SDS011;41950;55.840;37.442;2022-08-30T09:41:55;10.77;;;8.80;;
56073;SDS011;41950;55.840;37.442;2022-08-30T09:44:37;10.52;;;8.07;;
56073;SDS011;41950;55.840;37.442;2022-08-30T09:47:03;11.45;;;9.27;;
56073;SDS011;41950;55.840;37.442;2022-08-30T09:49:34;9.43;;;7.80;;
56073;SDS011;41950;55.840;37.442;2022-08-30T09:52:06;10.88;;;8.38;;
56073;SDS011;41950;55.840;37.442;2022-08-30T09:55:04;9.95;;;8.27;;
56073;SDS011;41950;55.840;37.442;2022-08-30T10:00:15;12.40;;;8.77;;
56073;SDS011;41950;55.840;37.442;2022-08-30T10:02:49;10.52;;;8.68;;
56073;SDS011;41950;55.840;37.442;2022-08-30T10:08:48;10.65;;;8.27;;
56073;SDS011;41950;55.840;37.442;2022-08-30T10:16:50;12.95;;;8.65;;
56073;SDS011;41950;55.840;37.442;2022-08-30T10:24:50;10.98;;;7.78;;
56073;SDS011;41950;55.840;37.442;2022-08-30T10:27:27;9.80;;;7.88;;
56073;SDS011;41950;55.840;37.442;2022-08-30T10:30:00;14.35;;;9.07;;
56073;SDS011;41950;55.840;37.442;2022-08-30T10:32:35;13.60;;;8.73;;
56073;SDS011;41950;55.840;37.442;2022-08-30T10:35:09;10.77;;;8.88;;
56073;SDS011;41950;55.840;37.442;2022-08-30T10:37:40;11.15;;;8.95;;
56073;SDS011;41950;55.840;37.442;2022-08-30T10:40:14;11.32;;;9.43;;
56073;SDS011;41950;55.840;37.442;2022-08-30T10:43:05;11.60;;;8.55;;
56073;SDS011;41950;55.840;37.442;2022-08-30T10:45:39;10.60;;;8.05;;
56073;SDS011;41950;55.840;37.442;2022-08-30T10:48:17;12.70;;;8.93;;
56073;SDS011;41950;55.840;37.442;2022-08-30T10:50:49;10.52;;;8.77;;
56073;SDS011;41950;55.840;37.442;2022-08-30T10:53:20;13.23;;;9.27;;
56073;SDS011;41950;55.840;37.442;2022-08-30T10:56:08;11.93;;;10.23;;
56073;SDS011;41950;55.840;37.442;2022-08-30T10:58:38;12.38;;;9.90;;
56073;SDS011;41950;55.840;37.442;2022-08-30T11:07:06;12.70;;;10.57;;
56073;SDS011;41950;55.840;37.442;2022-08-30T11:15:17;12.73;;;10.15;;
56073;SDS011;41950;55.840;37.442;2022-08-30T11:17:59;21.45;;;11.30;;
56073;SDS011;41950;55.840;37.442;2022-08-30T11:20:29;14.55;;;12.18;;
56073;SDS011;41950;55.840;37.442;2022-08-30T11:41:31;12.02;;;10.60;;
56073;SDS011;41950;55.840;37.442;2022-08-30T11:46:58;12.82;;;10.60;;
56073;SDS011;41950;55.840;37.442;2022-08-30T11:49:39;11.15;;;9.70;;
56073;SDS011;41950;55.840;37.442;2022-08-30T11:52:29;14.30;;;10.05;;
56073;SDS011;41950;55.840;37.442;2022-08-30T11:55:11;12.60;;;10.25;;
56073;SDS011;41950;55.840;37.442;2022-08-30T12:00:44;14.05;;;10.38;;
56073;SDS011;41950;55.840;37.442;2022-08-30T12:11:07;11.50;;;10.30;;
56073;SDS011;41950;55.840;37.442;2022-08-30T12:13:57;12.27;;;10.07;;
56073;SDS011;41950;55.840;37.442;2022-08-30T12:18:59;13.10;;;9.55;;
56073;SDS011;41950;55.840;37.442;2022-08-30T12:21:39;13.10;;;9.95;;
56073;SDS011;41950;55.840;37.442;2022-08-30T12:24:25;10.77;;;9.68;;
56073;SDS011;41950;55.840;37.442;2022-08-30T12:26:53;13.27;;;10.63;;
56073;SDS011;41950;55.840;37.442;2022-08-30T12:29:21;12.95;;;10.93;;
56073;SDS011;41950;55.840;37.442;2022-08-30T12:32:04;13.40;;;10.80;;
56073;SDS011;41950;55.840;37.442;2022-08-30T12:37:05;12.98;;;10.40;;
56073;SDS011;41950;55.840;37.442;2022-08-30T12:39:41;12.75;;;10.18;;
56073;SDS011;41950;55.840;37.442;2022-08-30T12:44:47;12.90;;;9.80;;
56073;SDS011;41950;55.840;37.442;2022-08-30T12:47:23;12.85;;;10.57;;
56073;SDS011;41950;55.840;37.442;2022-08-30T12:50:05;13.10;;;10.55;;
56073;SDS011;41950;55.840;37.442;2022-08-30T12:52:34;13.30;;;10.40;;
56073;SDS011;41950;55.840;37.442;2022-08-30T12:55:12;15.07;;;10.70;;
56073;SDS011;41950;55.840;37.442;2022-08-30T12:57:53;11.85;;;8.73;;
56073;SDS011;41950;55.840;37.442;2022-08-30T13:00:27;11.82;;;8.80;;
56073;SDS011;41950;55.840;37.442;2022-08-30T13:02:55;11.80;;;8.60;;
56073;SDS011;41950;55.840;37.442;2022-08-30T13:08:07;11.70;;;9.00;;
56073;SDS011;41950;55.840;37.442;2022-08-30T13:11:01;12.07;;;8.77;;
56073;SDS011;41950;55.840;37.442;2022-08-30T13:13:29;13.23;;;8.70;;
56073;SDS011;41950;55.840;37.442;2022-08-30T13:18:42;11.85;;;8.60;;
56073;SDS011;41950;55.840;37.442;2022-08-30T13:23:56;14.15;;;8.85;;
56073;SDS011;41950;55.840;37.442;2022-08-30T13:26:24;12.48;;;8.57;;
56073;SDS011;41950;55.840;37.442;2022-08-30T13:28:57;12.60;;;8.25;;
56073;SDS011;41950;55.840;37.442;2022-08-30T13:31:26;11.55;;;8.85;;
56073;SDS011;41950;55.840;37.442;2022-08-30T13:33:53;11.02;;;8.45;;
56073;SDS011;41950;55.840;37.442;2022-08-30T13:36:24;11.70;;;8.75;;
56073;SDS011;41950;55.840;37.442;2022-08-30T13:38:58;14.32;;;9.07;;
56073;SDS011;41950;55.840;37.442;2022-08-30T13:41:25;10.10;;;8.95;;
56073;SDS011;41950;55.840;37.442;2022-08-30T13:43:51;12.52;;;9.20;;
56073;SDS011;41950;55.840;37.442;2022-08-30T13:46:17;11.25;;;8.80;;
56073;SDS011;41950;55.840;37.442;2022-08-30T13:48:45;11.57;;;9.55;;
56073;SDS011;41950;55.840;37.442;2022-08-30T13:51:10;14.02;;;10.07;;
56073;SDS011;41950;55.840;37.442;2022-08-30T13:53:36;11.45;;;9.88;;
56073;SDS011;41950;55.840;37.442;2022-08-30T13:56:02;11.48;;;9.07;;
56073;SDS011;41950;55.840;37.442;2022-08-30T13:58:29;55.03;;;11.30;;
56073;SDS011;41950;55.840;37.442;2022-08-30T14:00:56;22.88;;;10.15;;
56073;SDS011;41950;55.840;37.442;2022-08-30T14:03:22;13.18;;;9.70;;
56073;SDS011;41950;55.840;37.442;2022-08-30T14:05:48;14.05;;;9.63;;
56073;SDS011;41950;55.840;37.442;2022-08-30T14:08:16;17.65;;;11.80;;
56073;SDS011;41950;55.840;37.442;2022-08-30T14:10:45;22.25;;;18.67;;
56073;SDS011;41950;55.840;37.442;2022-08-30T14:13:10;11.30;;;9.02;;
56073;SDS011;41950;55.840;37.442;2022-08-30T14:15:36;15.70;;;9.90;;
56073;SDS011;41950;55.840;37.442;2022-08-30T14:18:03;12.45;;;9.63;;
56073;SDS011;41950;55.840;37.442;2022-08-30T14:20:30;12.15;;;9.55;;
56073;SDS011;41950;55.840;37.442;2022-08-30T14:22:56;12.40;;;9.27;;
56073;SDS011;41950;55.840;37.442;2022-08-30T14:25:22;11.88;;;8.98;;
56073;SDS011;41950;55.840;37.442;2022-08-30T14:27:47;10.73;;;9.07;;
56073;SDS011;41950;55.840;37.442;2022-08-30T14:30:13;13.23;;;8.98;;
56073;SDS011;41950;55.840;37.442;2022-08-30T14:32:39;9.57;;;8.43;;
56073;SDS011;41950;55.840;37.442;2022-08-30T14:35:05;11.50;;;8.52;;
56073;SDS011;41950;55.840;37.442;2022-08-30T14:37:32;11.40;;;8.23;;
56073;SDS011;41950;55.840;37.442;2022-08-30T14:39:59;9.57;;;8.13;;
56073;SDS011;41950;55.840;37.442;2022-08-30T14:42:25;13.07;;;8.93;;
56073;SDS011;41950;55.840;37.442;2022-08-30T14:44:50;12.15;;;8.48;;
56073;SDS011;41950;55.840;37.442;2022-08-30T14:47:16;12.00;;;8.70;;
56073;SDS011;41950;55.840;37.442;2022-08-30T14:49:41;10.77;;;7.85;;
56073;SDS011;41950;55.840;37.442;2022-08-30T14:52:07;14.18;;;8.68;;
56073;SDS011;41950;55.840;37.442;2022-08-30T14:54:32;13.32;;;8.40;;
56073;SDS011;41950;55.840;37.442;2022-08-30T14:56:58;10.35;;;8.10;;
56073;SDS011;41950;55.840;37.442;2022-08-30T14:59:24;12.35;;;8.55;;
56073;SDS011;41950;55.840;37.442;2022-08-30T15:01:50;9.93;;;8.27;;
56073;SDS011;41950;55.840;37.442;2022-08-30T15:04:16;14.32;;;9.57;;
56073;SDS011;41950;55.840;37.442;2022-08-30T15:06:43;14.63;;;9.70;;
56073;SDS011;41950;55.840;37.442;2022-08-30T15:09:12;15.38;;;8.93;;
56073;SDS011;41950;55.840;37.442;2022-08-30T15:11:40;13.73;;;8.88;;
56073;SDS011;41950;55.840;37.442;2022-08-30T15:14:07;13.30;;;7.85;;
56073;SDS011;41950;55.840;37.442;2022-08-30T15:16:34;12.82;;;6.50;;
56073;SDS011;41950;55.840;37.442;2022-08-30T15:19:02;12.32;;;5.63;;
56073;SDS011;41950;55.840;37.442;2022-08-30T15:21:31;10.13;;;5.40;;
56073;SDS011;41950;55.840;37.442;2022-08-30T15:24:04;9.70;;;4.57;;
56073;SDS011;41950;55.840;37.442;2022-08-30T15:26:32;14.13;;;5.60;;
56073;SDS011;41950;55.840;37.442;2022-08-30T15:29:00;13.95;;;4.75;;
56073;SDS011;41950;55.840;37.442;2022-08-30T15:31:27;10.25;;;4.65;;
56073;SDS011;41950;55.840;37.442;2022-08-30T15:33:55;13.35;;;5.65;;
56073;SDS011;41950;55.840;37.442;2022-08-30T15:36:22;11.15;;;5.05;;
56073;SDS011;41950;55.840;37.442;2022-08-30T15:38:50;14.38;;;5.20;;
56073;SDS011;41950;55.840;37.442;2022-08-30T15:41:19;14.07;;;5.30;;
56073;SDS011;41950;55.840;37.442;2022-08-30T15:43:45;15.77;;;5.88;;
56073;SDS011;41950;55.840;37.442;2022-08-30T15:46:15;16.33;;;5.30;;
56073;SDS011;41950;55.840;37.442;2022-08-30T15:48:44;13.30;;;5.38;;
56073;SDS011;41950;55.840;37.442;2022-08-30T15:51:11;12.07;;;5.10;;
56073;SDS011;41950;55.840;37.442;2022-08-30T15:53:37;10.68;;;5.00;;
56073;SDS011;41950;55.840;37.442;2022-08-30T15:56:03;17.00;;;5.35;;
56073;SDS011;41950;55.840;37.442;2022-08-30T15:58:28;12.07;;;4.88;;
56073;SDS011;41950;55.840;37.442;2022-08-30T16:00:54;14.07;;;5.07;;
56073;SDS011;41950;55.840;37.442;2022-08-30T16:03:20;11.90;;;5.18;;
56073;SDS011;41950;55.840;37.442;2022-08-30T16:05:45;11.20;;;4.60;;
56073;SDS011;41950;55.840;37.442;2022-08-30T16:08:11;11.40;;;4.38;;